sensor_id;sensor_type;location;lat;lon;timestamp;P1;durP1;ratioP1;P2;durP2;ratioP2
12332;SDS011;6232;48.094;11.288;2023-03-16T00:00:27;5.07;;;4.63;;
12332;SDS011;6232;48.094;11.288;2023-03-16T00:03:13;7.77;;;4.90;;
12332;SDS011;6232;48.094;11.288;2023-03-16T00:06:03;5.00;;;4.37;;
12332;SDS011;6232;48.094;11.288;2023-03-16T00:08:49;4.80;;;4.30;;
12332;SDS011;6232;48.094;11.288;2023-03-16T00:11:34;6.33;;;5.20;;
12332;SDS011;6232;48.094;11.288;2023-03-16T00:14:20;5.57;;;4.50;;
12332;SDS011;6232;48.094;11.288;2023-03-16T00:17:07;7.90;;;4.50;;
12332;SDS011;6232;48.094;11.288;2023-03-16T00:19:53;5.13;;;4.40;;
12332;SDS011;6232;48.094;11.288;2023-03-16T00:22:39;4.60;;;4.20;;
12332;SDS011;6232;48.094;11.288;2023-03-16T00:25:26;6.10;;;4.50;;
12332;SDS011;6232;48.094;11.288;2023-03-16T00:28:11;7.20;;;5.10;;
12332;SDS011;6232;48.094;11.288;2023-03-16T00:30:58;6.70;;;4.63;;
12332;SDS011;6232;48.094;11.288;2023-03-16T00:33:43;8.30;;;4.83;;
12332;SDS011;6232;48.094;11.288;2023-03-16T00:36:29;5.57;;;4.57;;
12332;SDS011;6232;48.094;11.288;2023-03-16T00:39:14;4.60;;;4.20;;
12332;SDS011;6232;48.094;11.288;2023-03-16T00:42:00;5.10;;;4.03;;
12332;SDS011;6232;48.094;11.288;2023-03-16T00:44:46;7.50;;;4.30;;
12332;SDS011;6232;48.094;11.288;2023-03-16T00:47:32;4.43;;;4.13;;
12332;SDS011;6232;48.094;11.288;2023-03-16T00:50:18;5.73;;;4.70;;
12332;SDS011;6232;48.094;11.288;2023-03-16T00:53:06;4.83;;;4.43;;
12332;SDS011;6232;48.094;11.288;2023-03-16T00:55:52;6.43;;;4.67;;
12332;SDS011;6232;48.094;11.288;2023-03-16T00:58:39;7.40;;;5.00;;
12332;SDS011;6232;48.094;11.288;2023-03-16T01:01:27;9.73;;;5.50;;
12332;SDS011;6232;48.094;11.288;2023-03-16T01:04:12;5.23;;;4.70;;
12332;SDS011;6232;48.094;11.288;2023-03-16T01:06:58;7.40;;;5.40;;
12332;SDS011;6232;48.094;11.288;2023-03-16T01:09:44;5.80;;;4.27;;
12332;SDS011;6232;48.094;11.288;2023-03-16T01:12:29;5.70;;;4.23;;
12332;SDS011;6232;48.094;11.288;2023-03-16T01:15:15;5.27;;;4.60;;
12332;SDS011;6232;48.094;11.288;2023-03-16T01:18:01;5.90;;;4.57;;
12332;SDS011;6232;48.094;11.288;2023-03-16T01:20:46;6.90;;;5.27;;
12332;SDS011;6232;48.094;11.288;2023-03-16T01:23:35;5.97;;;5.10;;
12332;SDS011;6232;48.094;11.288;2023-03-16T01:26:20;18.97;;;6.47;;
12332;SDS011;6232;48.094;11.288;2023-03-16T01:29:07;4.43;;;4.03;;
12332;SDS011;6232;48.094;11.288;2023-03-16T01:31:53;6.17;;;5.10;;
12332;SDS011;6232;48.094;11.288;2023-03-16T01:34:40;5.60;;;4.80;;
12332;SDS011;6232;48.094;11.288;2023-03-16T01:37:25;6.53;;;4.80;;
12332;SDS011;6232;48.094;11.288;2023-03-16T01:40:11;5.00;;;4.50;;
12332;SDS011;6232;48.094;11.288;2023-03-16T01:43:01;5.20;;;4.70;;
12332;SDS011;6232;48.094;11.288;2023-03-16T01:46:07;5.63;;;4.10;;
12332;SDS011;6232;48.094;11.288;2023-03-16T01:51:48;7.33;;;4.80;;
12332;SDS011;6232;48.094;11.288;2023-03-16T01:54:57;6.77;;;4.67;;
12332;SDS011;6232;48.094;11.288;2023-03-16T01:57:43;8.87;;;4.43;;
12332;SDS011;6232;48.094;11.288;2023-03-16T02:00:30;5.30;;;4.73;;
12332;SDS011;6232;48.094;11.288;2023-03-16T02:03:17;6.67;;;5.37;;
12332;SDS011;6232;48.094;11.288;2023-03-16T02:06:05;5.50;;;4.00;;
12332;SDS011;6232;48.094;11.288;2023-03-16T02:08:52;6.53;;;4.77;;
12332;SDS011;6232;48.094;11.288;2023-03-16T02:11:39;13.67;;;5.30;;
12332;SDS011;6232;48.094;11.288;2023-03-16T02:14:25;7.17;;;5.47;;
12332;SDS011;6232;48.094;11.288;2023-03-16T02:17:12;5.97;;;5.07;;
12332;SDS011;6232;48.094;11.288;2023-03-16T02:22:45;6.23;;;4.40;;
12332;SDS011;6232;48.094;11.288;2023-03-16T02:31:15;5.60;;;5.00;;
12332;SDS011;6232;48.094;11.288;2023-03-16T02:34:01;7.03;;;3.87;;
12332;SDS011;6232;48.094;11.288;2023-03-16T02:36:47;4.53;;;4.00;;
12332;SDS011;6232;48.094;11.288;2023-03-16T02:39:33;6.17;;;5.17;;
12332;SDS011;6232;48.094;11.288;2023-03-16T02:42:20;9.80;;;5.87;;
12332;SDS011;6232;48.094;11.288;2023-03-16T02:45:07;6.57;;;5.83;;
12332;SDS011;6232;48.094;11.288;2023-03-16T02:47:53;12.87;;;5.40;;
12332;SDS011;6232;48.094;11.288;2023-03-16T02:50:43;11.30;;;5.60;;
12332;SDS011;6232;48.094;11.288;2023-03-16T02:53:31;7.40;;;5.13;;
12332;SDS011;6232;48.094;11.288;2023-03-16T02:56:16;10.97;;;5.33;;
12332;SDS011;6232;48.094;11.288;2023-03-16T02:59:02;6.17;;;5.57;;
12332;SDS011;6232;48.094;11.288;2023-03-16T03:01:47;8.67;;;5.13;;
12332;SDS011;6232;48.094;11.288;2023-03-16T03:04:33;6.80;;;5.33;;
12332;SDS011;6232;48.094;11.288;2023-03-16T03:07:19;10.43;;;6.03;;
12332;SDS011;6232;48.094;11.288;2023-03-16T03:10:05;8.00;;;5.43;;
12332;SDS011;6232;48.094;11.288;2023-03-16T03:12:51;8.00;;;5.70;;
12332;SDS011;6232;48.094;11.288;2023-03-16T03:15:36;6.97;;;5.80;;
12332;SDS011;6232;48.094;11.288;2023-03-16T03:18:22;7.57;;;5.80;;
12332;SDS011;6232;48.094;11.288;2023-03-16T03:21:09;7.00;;;5.90;;
12332;SDS011;6232;48.094;11.288;2023-03-16T03:23:55;8.43;;;5.03;;
12332;SDS011;6232;48.094;11.288;2023-03-16T03:26:40;9.60;;;6.20;;
12332;SDS011;6232;48.094;11.288;2023-03-16T03:29:26;6.47;;;5.80;;
12332;SDS011;6232;48.094;11.288;2023-03-16T03:32:18;17.47;;;5.53;;
12332;SDS011;6232;48.094;11.288;2023-03-16T03:35:04;7.77;;;5.90;;
12332;SDS011;6232;48.094;11.288;2023-03-16T03:37:50;11.50;;;6.17;;
12332;SDS011;6232;48.094;11.288;2023-03-16T03:40:36;8.40;;;6.30;;
12332;SDS011;6232;48.094;11.288;2023-03-16T03:43:21;10.70;;;6.23;;
12332;SDS011;6232;48.094;11.288;2023-03-16T03:46:07;7.20;;;6.10;;
12332;SDS011;6232;48.094;11.288;2023-03-16T03:48:52;8.63;;;5.63;;
12332;SDS011;6232;48.094;11.288;2023-03-16T03:51:39;9.50;;;6.67;;
12332;SDS011;6232;48.094;11.288;2023-03-16T03:54:25;9.37;;;5.63;;
12332;SDS011;6232;48.094;11.288;2023-03-16T03:57:11;6.13;;;5.00;;
12332;SDS011;6232;48.094;11.288;2023-03-16T03:59:56;13.90;;;6.20;;
12332;SDS011;6232;48.094;11.288;2023-03-16T04:02:42;7.63;;;5.40;;
12332;SDS011;6232;48.094;11.288;2023-03-16T04:05:27;7.57;;;5.30;;
12332;SDS011;6232;48.094;11.288;2023-03-16T04:08:13;7.73;;;5.67;;
12332;SDS011;6232;48.094;11.288;2023-03-16T04:10:58;9.43;;;6.10;;
12332;SDS011;6232;48.094;11.288;2023-03-16T04:13:45;10.57;;;5.87;;
12332;SDS011;6232;48.094;11.288;2023-03-16T04:16:31;8.87;;;6.80;;
12332;SDS011;6232;48.094;11.288;2023-03-16T04:19:16;7.27;;;5.20;;
12332;SDS011;6232;48.094;11.288;2023-03-16T04:22:02;11.30;;;6.83;;
12332;SDS011;6232;48.094;11.288;2023-03-16T04:24:47;6.73;;;5.50;;
12332;SDS011;6232;48.094;11.288;2023-03-16T04:27:33;9.17;;;6.17;;
12332;SDS011;6232;48.094;11.288;2023-03-16T04:30:21;17.70;;;6.40;;
12332;SDS011;6232;48.094;11.288;2023-03-16T04:33:07;17.43;;;6.20;;
12332;SDS011;6232;48.094;11.288;2023-03-16T04:35:53;7.00;;;5.37;;
12332;SDS011;6232;48.094;11.288;2023-03-16T04:38:38;7.83;;;5.33;;
12332;SDS011;6232;48.094;11.288;2023-03-16T04:41:25;9.13;;;5.63;;
12332;SDS011;6232;48.094;11.288;2023-03-16T04:44:10;6.80;;;4.80;;
12332;SDS011;6232;48.094;11.288;2023-03-16T04:46:56;7.50;;;5.77;;
12332;SDS011;6232;48.094;11.288;2023-03-16T04:49:43;7.90;;;7.00;;
12332;SDS011;6232;48.094;11.288;2023-03-16T04:52:29;8.53;;;6.43;;
12332;SDS011;6232;48.094;11.288;2023-03-16T04:55:15;11.63;;;8.10;;
12332;SDS011;6232;48.094;11.288;2023-03-16T04:58:00;23.83;;;9.20;;
12332;SDS011;6232;48.094;11.288;2023-03-16T05:00:46;13.90;;;9.73;;
12332;SDS011;6232;48.094;11.288;2023-03-16T05:03:32;17.90;;;10.93;;
12332;SDS011;6232;48.094;11.288;2023-03-16T05:06:19;15.63;;;10.10;;
12332;SDS011;6232;48.094;11.288;2023-03-16T05:09:04;15.20;;;9.60;;
12332;SDS011;6232;48.094;11.288;2023-03-16T05:11:52;14.60;;;9.10;;
12332;SDS011;6232;48.094;11.288;2023-03-16T05:14:38;22.93;;;10.63;;
12332;SDS011;6232;48.094;11.288;2023-03-16T05:17:23;12.87;;;10.07;;
12332;SDS011;6232;48.094;11.288;2023-03-16T05:20:10;21.00;;;10.83;;
12332;SDS011;6232;48.094;11.288;2023-03-16T05:22:57;19.13;;;11.43;;
12332;SDS011;6232;48.094;11.288;2023-03-16T05:25:42;26.53;;;12.27;;
12332;SDS011;6232;48.094;11.288;2023-03-16T05:28:28;36.83;;;11.80;;
12332;SDS011;6232;48.094;11.288;2023-03-16T05:31:13;20.63;;;11.30;;
12332;SDS011;6232;48.094;11.288;2023-03-16T05:33:59;24.30;;;12.50;;
12332;SDS011;6232;48.094;11.288;2023-03-16T05:36:46;20.30;;;12.30;;
12332;SDS011;6232;48.094;11.288;2023-03-16T05:39:32;18.63;;;10.60;;
12332;SDS011;6232;48.094;11.288;2023-03-16T05:42:18;22.40;;;11.73;;
12332;SDS011;6232;48.094;11.288;2023-03-16T05:45:04;23.33;;;12.60;;
12332;SDS011;6232;48.094;11.288;2023-03-16T05:47:50;20.27;;;13.10;;
12332;SDS011;6232;48.094;11.288;2023-03-16T05:50:36;17.03;;;11.30;;
12332;SDS011;6232;48.094;11.288;2023-03-16T05:53:22;17.40;;;11.40;;
12332;SDS011;6232;48.094;11.288;2023-03-16T05:56:12;19.27;;;11.03;;
12332;SDS011;6232;48.094;11.288;2023-03-16T05:58:58;19.43;;;10.47;;
12332;SDS011;6232;48.094;11.288;2023-03-16T06:01:44;24.30;;;12.70;;
12332;SDS011;6232;48.094;11.288;2023-03-16T06:04:30;27.67;;;10.80;;
12332;SDS011;6232;48.094;11.288;2023-03-16T06:07:16;26.33;;;11.90;;
12332;SDS011;6232;48.094;11.288;2023-03-16T06:10:02;30.93;;;12.10;;
12332;SDS011;6232;48.094;11.288;2023-03-16T06:12:49;25.03;;;12.87;;
12332;SDS011;6232;48.094;11.288;2023-03-16T06:15:35;23.60;;;13.70;;
12332;SDS011;6232;48.094;11.288;2023-03-16T06:18:21;20.03;;;11.70;;
12332;SDS011;6232;48.094;11.288;2023-03-16T06:21:07;25.67;;;13.33;;
12332;SDS011;6232;48.094;11.288;2023-03-16T06:23:52;22.87;;;12.87;;
12332;SDS011;6232;48.094;11.288;2023-03-16T06:26:38;22.70;;;12.77;;
12332;SDS011;6232;48.094;11.288;2023-03-16T06:29:24;21.87;;;12.70;;
12332;SDS011;6232;48.094;11.288;2023-03-16T06:32:09;19.77;;;12.90;;
12332;SDS011;6232;48.094;11.288;2023-03-16T06:34:55;21.43;;;12.37;;
12332;SDS011;6232;48.094;11.288;2023-03-16T06:37:43;19.77;;;13.13;;
12332;SDS011;6232;48.094;11.288;2023-03-16T06:40:29;21.87;;;12.80;;
12332;SDS011;6232;48.094;11.288;2023-03-16T06:43:15;20.17;;;11.67;;
12332;SDS011;6232;48.094;11.288;2023-03-16T06:46:01;22.90;;;11.63;;
12332;SDS011;6232;48.094;11.288;2023-03-16T06:48:47;21.57;;;13.50;;
12332;SDS011;6232;48.094;11.288;2023-03-16T06:51:33;18.07;;;12.87;;
12332;SDS011;6232;48.094;11.288;2023-03-16T06:54:18;15.70;;;10.67;;
12332;SDS011;6232;48.094;11.288;2023-03-16T06:57:04;23.30;;;12.40;;
12332;SDS011;6232;48.094;11.288;2023-03-16T06:59:50;15.50;;;11.57;;
12332;SDS011;6232;48.094;11.288;2023-03-16T07:02:35;21.40;;;12.10;;
12332;SDS011;6232;48.094;11.288;2023-03-16T07:05:23;21.97;;;12.20;;
12332;SDS011;6232;48.094;11.288;2023-03-16T07:08:09;19.13;;;12.20;;
12332;SDS011;6232;48.094;11.288;2023-03-16T07:10:54;17.43;;;12.70;;
12332;SDS011;6232;48.094;11.288;2023-03-16T07:13:40;18.67;;;11.80;;
12332;SDS011;6232;48.094;11.288;2023-03-16T07:16:26;19.40;;;12.97;;
12332;SDS011;6232;48.094;11.288;2023-03-16T07:19:12;16.90;;;11.77;;
12332;SDS011;6232;48.094;11.288;2023-03-16T07:21:57;18.67;;;11.33;;
12332;SDS011;6232;48.094;11.288;2023-03-16T07:24:43;24.67;;;12.03;;
12332;SDS011;6232;48.094;11.288;2023-03-16T07:27:29;25.20;;;12.90;;
12332;SDS011;6232;48.094;11.288;2023-03-16T07:30:15;18.53;;;11.60;;
12332;SDS011;6232;48.094;11.288;2023-03-16T07:33:01;21.50;;;12.90;;
12332;SDS011;6232;48.094;11.288;2023-03-16T07:35:46;21.00;;;11.13;;
12332;SDS011;6232;48.094;11.288;2023-03-16T07:38:32;17.50;;;12.00;;
12332;SDS011;6232;48.094;11.288;2023-03-16T07:41:18;23.27;;;11.53;;
12332;SDS011;6232;48.094;11.288;2023-03-16T07:44:03;19.60;;;12.40;;
12332;SDS011;6232;48.094;11.288;2023-03-16T07:46:49;18.13;;;10.83;;
12332;SDS011;6232;48.094;11.288;2023-03-16T07:49:35;17.90;;;10.10;;
12332;SDS011;6232;48.094;11.288;2023-03-16T07:52:21;15.80;;;10.10;;
12332;SDS011;6232;48.094;11.288;2023-03-16T07:55:07;26.53;;;10.53;;
12332;SDS011;6232;48.094;11.288;2023-03-16T07:57:52;14.90;;;10.17;;
12332;SDS011;6232;48.094;11.288;2023-03-16T08:00:38;15.90;;;11.13;;
12332;SDS011;6232;48.094;11.288;2023-03-16T08:03:24;19.80;;;10.10;;
12332;SDS011;6232;48.094;11.288;2023-03-16T08:06:10;15.03;;;9.37;;
12332;SDS011;6232;48.094;11.288;2023-03-16T08:08:56;14.90;;;10.60;;
12332;SDS011;6232;48.094;11.288;2023-03-16T08:11:42;21.30;;;12.03;;
12332;SDS011;6232;48.094;11.288;2023-03-16T08:14:27;12.60;;;9.77;;
12332;SDS011;6232;48.094;11.288;2023-03-16T08:17:13;14.67;;;10.30;;
12332;SDS011;6232;48.094;11.288;2023-03-16T08:19:59;10.97;;;9.27;;
12332;SDS011;6232;48.094;11.288;2023-03-16T08:22:44;10.60;;;8.40;;
12332;SDS011;6232;48.094;11.288;2023-03-16T08:25:30;13.33;;;8.07;;
12332;SDS011;6232;48.094;11.288;2023-03-16T08:28:16;10.53;;;8.47;;
12332;SDS011;6232;48.094;11.288;2023-03-16T08:31:01;9.10;;;7.50;;
12332;SDS011;6232;48.094;11.288;2023-03-16T08:33:47;11.33;;;8.67;;
12332;SDS011;6232;48.094;11.288;2023-03-16T08:36:32;12.83;;;8.40;;
12332;SDS011;6232;48.094;11.288;2023-03-16T08:39:18;9.67;;;7.13;;
12332;SDS011;6232;48.094;11.288;2023-03-16T08:42:04;10.87;;;8.60;;
12332;SDS011;6232;48.094;11.288;2023-03-16T08:44:51;12.33;;;8.40;;
12332;SDS011;6232;48.094;11.288;2023-03-16T08:47:39;9.70;;;7.63;;
12332;SDS011;6232;48.094;11.288;2023-03-16T08:50:25;8.60;;;7.03;;
12332;SDS011;6232;48.094;11.288;2023-03-16T08:53:11;11.03;;;8.10;;
12332;SDS011;6232;48.094;11.288;2023-03-16T08:56:01;14.70;;;8.77;;
12332;SDS011;6232;48.094;11.288;2023-03-16T08:58:47;9.27;;;7.63;;
12332;SDS011;6232;48.094;11.288;2023-03-16T09:01:33;10.53;;;7.70;;
12332;SDS011;6232;48.094;11.288;2023-03-16T09:04:19;9.43;;;7.60;;
12332;SDS011;6232;48.094;11.288;2023-03-16T09:07:05;12.23;;;7.93;;
12332;SDS011;6232;48.094;11.288;2023-03-16T09:09:51;12.43;;;9.30;;
12332;SDS011;6232;48.094;11.288;2023-03-16T09:12:37;9.30;;;7.30;;
12332;SDS011;6232;48.094;11.288;2023-03-16T09:15:22;11.90;;;7.83;;
12332;SDS011;6232;48.094;11.288;2023-03-16T09:18:08;13.90;;;8.20;;
12332;SDS011;6232;48.094;11.288;2023-03-16T09:20:58;11.37;;;7.67;;
12332;SDS011;6232;48.094;11.288;2023-03-16T09:23:44;8.13;;;7.27;;
12332;SDS011;6232;48.094;11.288;2023-03-16T09:26:29;13.50;;;8.37;;
12332;SDS011;6232;48.094;11.288;2023-03-16T09:29:15;9.70;;;7.33;;
12332;SDS011;6232;48.094;11.288;2023-03-16T09:32:00;10.90;;;7.80;;
12332;SDS011;6232;48.094;11.288;2023-03-16T09:34:46;10.07;;;7.33;;
12332;SDS011;6232;48.094;11.288;2023-03-16T09:37:32;11.23;;;8.00;;
12332;SDS011;6232;48.094;11.288;2023-03-16T09:40:27;12.00;;;8.50;;
12332;SDS011;6232;48.094;11.288;2023-03-16T09:48:54;10.03;;;6.97;;
12332;SDS011;6232;48.094;11.288;2023-03-16T09:51:42;7.70;;;6.90;;
12332;SDS011;6232;48.094;11.288;2023-03-16T09:54:37;9.43;;;7.00;;
12332;SDS011;6232;48.094;11.288;2023-03-16T09:57:25;9.87;;;6.73;;
12332;SDS011;6232;48.094;11.288;2023-03-16T10:03:00;7.40;;;6.27;;
12332;SDS011;6232;48.094;11.288;2023-03-16T10:05:51;8.00;;;6.90;;
12332;SDS011;6232;48.094;11.288;2023-03-16T10:08:42;6.63;;;6.03;;
12332;SDS011;6232;48.094;11.288;2023-03-16T10:11:31;5.73;;;5.13;;
12332;SDS011;6232;48.094;11.288;2023-03-16T10:14:24;6.90;;;5.20;;
12332;SDS011;6232;48.094;11.288;2023-03-16T10:17:16;5.73;;;5.10;;
12332;SDS011;6232;48.094;11.288;2023-03-16T10:20:06;5.37;;;4.87;;
12332;SDS011;6232;48.094;11.288;2023-03-16T10:22:53;6.20;;;5.20;;
12332;SDS011;6232;48.094;11.288;2023-03-16T10:25:45;5.20;;;4.70;;
12332;SDS011;6232;48.094;11.288;2023-03-16T10:28:31;7.23;;;4.53;;
12332;SDS011;6232;48.094;11.288;2023-03-16T10:31:19;8.00;;;5.10;;
12332;SDS011;6232;48.094;11.288;2023-03-16T10:34:05;4.10;;;3.70;;
12332;SDS011;6232;48.094;11.288;2023-03-16T10:36:51;4.80;;;4.20;;
12332;SDS011;6232;48.094;11.288;2023-03-16T10:39:38;7.47;;;4.00;;
12332;SDS011;6232;48.094;11.288;2023-03-16T10:42:27;4.30;;;3.87;;
12332;SDS011;6232;48.094;11.288;2023-03-16T10:48:07;4.30;;;3.60;;
12332;SDS011;6232;48.094;11.288;2023-03-16T10:50:54;4.70;;;4.27;;
12332;SDS011;6232;48.094;11.288;2023-03-16T10:53:42;7.10;;;3.90;;
12332;SDS011;6232;48.094;11.288;2023-03-16T10:56:30;4.70;;;4.30;;
12332;SDS011;6232;48.094;11.288;2023-03-16T11:02:15;4.00;;;3.60;;
12332;SDS011;6232;48.094;11.288;2023-03-16T11:05:11;4.80;;;3.20;;
12332;SDS011;6232;48.094;11.288;2023-03-16T11:08:01;3.80;;;3.50;;
12332;SDS011;6232;48.094;11.288;2023-03-16T11:10:54;6.80;;;2.80;;
12332;SDS011;6232;48.094;11.288;2023-03-16T11:13:47;12.27;;;3.70;;
12332;SDS011;6232;48.094;11.288;2023-03-16T11:16:38;4.97;;;3.50;;
12332;SDS011;6232;48.094;11.288;2023-03-16T11:22:16;4.67;;;3.70;;
12332;SDS011;6232;48.094;11.288;2023-03-16T11:28:12;3.20;;;2.70;;
12332;SDS011;6232;48.094;11.288;2023-03-16T11:33:46;6.97;;;2.57;;
12332;SDS011;6232;48.094;11.288;2023-03-16T11:36:52;3.10;;;2.60;;
12332;SDS011;6232;48.094;11.288;2023-03-16T11:46:07;2.60;;;2.40;;
12332;SDS011;6232;48.094;11.288;2023-03-16T11:49:18;2.53;;;2.10;;
12332;SDS011;6232;48.094;11.288;2023-03-16T11:57:55;11.83;;;2.80;;
12332;SDS011;6232;48.094;11.288;2023-03-16T12:00:54;4.37;;;3.40;;
12332;SDS011;6232;48.094;11.288;2023-03-16T12:03:51;3.97;;;3.50;;
12332;SDS011;6232;48.094;11.288;2023-03-16T12:18:54;3.20;;;2.90;;
12332;SDS011;6232;48.094;11.288;2023-03-16T12:21:45;2.83;;;2.63;;
12332;SDS011;6232;48.094;11.288;2023-03-16T12:24:36;3.23;;;2.93;;
12332;SDS011;6232;48.094;11.288;2023-03-16T12:27:31;3.60;;;3.30;;
12332;SDS011;6232;48.094;11.288;2023-03-16T12:45:12;3.43;;;3.13;;
12332;SDS011;6232;48.094;11.288;2023-03-16T12:50:52;3.00;;;2.37;;
12332;SDS011;6232;48.094;11.288;2023-03-16T12:53:40;7.10;;;3.17;;
12332;SDS011;6232;48.094;11.288;2023-03-16T12:56:29;4.17;;;2.87;;
12332;SDS011;6232;48.094;11.288;2023-03-16T12:59:15;2.73;;;2.53;;
12332;SDS011;6232;48.094;11.288;2023-03-16T13:02:02;2.83;;;2.57;;
12332;SDS011;6232;48.094;11.288;2023-03-16T13:04:58;4.33;;;2.73;;
12332;SDS011;6232;48.094;11.288;2023-03-16T13:07:46;4.40;;;2.90;;
12332;SDS011;6232;48.094;11.288;2023-03-16T13:10:32;3.97;;;2.40;;
12332;SDS011;6232;48.094;11.288;2023-03-16T13:13:17;3.80;;;2.70;;
12332;SDS011;6232;48.094;11.288;2023-03-16T13:16:09;3.23;;;2.33;;
12332;SDS011;6232;48.094;11.288;2023-03-16T13:19:24;3.00;;;2.80;;
12332;SDS011;6232;48.094;11.288;2023-03-16T13:25:23;5.13;;;2.87;;
12332;SDS011;6232;48.094;11.288;2023-03-16T13:28:21;3.20;;;2.70;;
12332;SDS011;6232;48.094;11.288;2023-03-16T13:31:24;2.97;;;2.77;;
12332;SDS011;6232;48.094;11.288;2023-03-16T13:34:20;2.70;;;2.50;;
12332;SDS011;6232;48.094;11.288;2023-03-16T13:37:11;3.10;;;2.80;;
12332;SDS011;6232;48.094;11.288;2023-03-16T13:40:00;5.13;;;2.53;;
12332;SDS011;6232;48.094;11.288;2023-03-16T13:42:46;2.40;;;2.20;;
12332;SDS011;6232;48.094;11.288;2023-03-16T13:45:36;4.10;;;3.03;;
12332;SDS011;6232;48.094;11.288;2023-03-16T13:48:21;2.60;;;2.40;;
12332;SDS011;6232;48.094;11.288;2023-03-16T13:51:12;3.20;;;2.90;;
12332;SDS011;6232;48.094;11.288;2023-03-16T13:54:03;3.43;;;2.90;;
12332;SDS011;6232;48.094;11.288;2023-03-16T13:56:50;2.60;;;2.40;;
12332;SDS011;6232;48.094;11.288;2023-03-16T13:59:37;3.20;;;2.90;;
12332;SDS011;6232;48.094;11.288;2023-03-16T14:02:22;2.83;;;2.63;;
12332;SDS011;6232;48.094;11.288;2023-03-16T14:05:16;2.47;;;2.27;;
12332;SDS011;6232;48.094;11.288;2023-03-16T14:08:03;3.03;;;2.77;;
12332;SDS011;6232;48.094;11.288;2023-03-16T14:10:49;3.23;;;2.93;;
12332;SDS011;6232;48.094;11.288;2023-03-16T14:13:35;2.90;;;2.63;;
12332;SDS011;6232;48.094;11.288;2023-03-16T14:16:24;5.97;;;2.60;;
12332;SDS011;6232;48.094;11.288;2023-03-16T14:19:44;4.10;;;2.80;;
12332;SDS011;6232;48.094;11.288;2023-03-16T14:22:33;3.80;;;2.60;;
12332;SDS011;6232;48.094;11.288;2023-03-16T14:25:22;2.80;;;2.60;;
12332;SDS011;6232;48.094;11.288;2023-03-16T14:28:12;2.53;;;2.33;;
12332;SDS011;6232;48.094;11.288;2023-03-16T14:31:05;2.83;;;2.50;;
12332;SDS011;6232;48.094;11.288;2023-03-16T14:33:58;2.60;;;2.30;;
12332;SDS011;6232;48.094;11.288;2023-03-16T14:36:44;2.70;;;2.50;;
12332;SDS011;6232;48.094;11.288;2023-03-16T14:39:29;4.27;;;2.50;;
12332;SDS011;6232;48.094;11.288;2023-03-16T14:42:19;5.43;;;2.77;;
12332;SDS011;6232;48.094;11.288;2023-03-16T14:45:09;4.83;;;2.33;;
12332;SDS011;6232;48.094;11.288;2023-03-16T14:48:02;2.40;;;2.20;;
12332;SDS011;6232;48.094;11.288;2023-03-16T14:50:58;2.87;;;2.50;;
12332;SDS011;6232;48.094;11.288;2023-03-16T14:53:45;2.40;;;2.20;;
12332;SDS011;6232;48.094;11.288;2023-03-16T14:56:34;4.40;;;2.17;;
12332;SDS011;6232;48.094;11.288;2023-03-16T14:59:20;2.43;;;2.23;;
12332;SDS011;6232;48.094;11.288;2023-03-16T15:02:06;2.27;;;1.97;;
12332;SDS011;6232;48.094;11.288;2023-03-16T15:04:57;2.40;;;1.83;;
12332;SDS011;6232;48.094;11.288;2023-03-16T15:07:44;1.90;;;1.70;;
12332;SDS011;6232;48.094;11.288;2023-03-16T15:10:31;1.90;;;1.80;;
12332;SDS011;6232;48.094;11.288;2023-03-16T15:13:19;2.27;;;1.83;;
12332;SDS011;6232;48.094;11.288;2023-03-16T15:16:23;1.83;;;1.67;;
12332;SDS011;6232;48.094;11.288;2023-03-16T15:19:10;1.83;;;1.60;;
12332;SDS011;6232;48.094;11.288;2023-03-16T15:21:56;2.23;;;2.03;;
12332;SDS011;6232;48.094;11.288;2023-03-16T15:24:42;3.53;;;1.60;;
12332;SDS011;6232;48.094;11.288;2023-03-16T15:27:29;2.73;;;2.23;;
12332;SDS011;6232;48.094;11.288;2023-03-16T15:30:21;2.40;;;2.00;;
12332;SDS011;6232;48.094;11.288;2023-03-16T15:33:08;4.33;;;1.80;;
12332;SDS011;6232;48.094;11.288;2023-03-16T15:35:54;2.00;;;1.80;;
12332;SDS011;6232;48.094;11.288;2023-03-16T15:38:42;2.17;;;2.00;;
12332;SDS011;6232;48.094;11.288;2023-03-16T15:41:28;2.63;;;2.00;;
12332;SDS011;6232;48.094;11.288;2023-03-16T15:44:14;3.10;;;2.27;;
12332;SDS011;6232;48.094;11.288;2023-03-16T15:47:00;2.93;;;1.97;;
12332;SDS011;6232;48.094;11.288;2023-03-16T15:49:46;2.77;;;2.10;;
12332;SDS011;6232;48.094;11.288;2023-03-16T15:52:32;2.77;;;2.33;;
12332;SDS011;6232;48.094;11.288;2023-03-16T15:55:23;2.97;;;2.70;;
12332;SDS011;6232;48.094;11.288;2023-03-16T15:58:16;2.60;;;2.40;;
12332;SDS011;6232;48.094;11.288;2023-03-16T16:01:04;5.37;;;2.97;;
12332;SDS011;6232;48.094;11.288;2023-03-16T16:03:53;3.40;;;3.10;;
12332;SDS011;6232;48.094;11.288;2023-03-16T16:06:39;2.20;;;2.00;;
12332;SDS011;6232;48.094;11.288;2023-03-16T16:09:25;3.60;;;2.33;;
12332;SDS011;6232;48.094;11.288;2023-03-16T16:12:11;2.70;;;2.10;;
12332;SDS011;6232;48.094;11.288;2023-03-16T16:14:58;2.87;;;2.20;;
12332;SDS011;6232;48.094;11.288;2023-03-16T16:17:44;2.83;;;2.30;;
12332;SDS011;6232;48.094;11.288;2023-03-16T16:20:30;2.90;;;2.60;;
12332;SDS011;6232;48.094;11.288;2023-03-16T16:23:19;3.20;;;2.20;;
12332;SDS011;6232;48.094;11.288;2023-03-16T16:26:13;2.37;;;2.17;;
12332;SDS011;6232;48.094;11.288;2023-03-16T16:28:59;4.73;;;2.40;;
12332;SDS011;6232;48.094;11.288;2023-03-16T16:31:47;2.10;;;1.90;;
12332;SDS011;6232;48.094;11.288;2023-03-16T16:34:33;3.27;;;1.60;;
12332;SDS011;6232;48.094;11.288;2023-03-16T16:37:19;4.03;;;2.53;;
12332;SDS011;6232;48.094;11.288;2023-03-16T16:40:04;1.83;;;1.73;;
12332;SDS011;6232;48.094;11.288;2023-03-16T16:42:51;4.53;;;2.10;;
12332;SDS011;6232;48.094;11.288;2023-03-16T16:45:37;1.70;;;1.60;;
12332;SDS011;6232;48.094;11.288;2023-03-16T16:48:29;6.87;;;2.07;;
12332;SDS011;6232;48.094;11.288;2023-03-16T16:51:20;2.30;;;2.10;;
12332;SDS011;6232;48.094;11.288;2023-03-16T16:54:17;5.63;;;2.20;;
12332;SDS011;6232;48.094;11.288;2023-03-16T16:57:04;2.00;;;1.83;;
12332;SDS011;6232;48.094;11.288;2023-03-16T16:59:49;2.90;;;1.93;;
12332;SDS011;6232;48.094;11.288;2023-03-16T17:02:41;1.90;;;1.80;;
12332;SDS011;6232;48.094;11.288;2023-03-16T17:05:27;2.07;;;1.87;;
12332;SDS011;6232;48.094;11.288;2023-03-16T17:08:14;2.23;;;2.03;;
12332;SDS011;6232;48.094;11.288;2023-03-16T17:10:59;5.17;;;2.57;;
12332;SDS011;6232;48.094;11.288;2023-03-16T17:13:45;12.17;;;2.77;;
12332;SDS011;6232;48.094;11.288;2023-03-16T17:16:33;3.17;;;2.80;;
12332;SDS011;6232;48.094;11.288;2023-03-16T17:19:20;5.30;;;3.10;;
12332;SDS011;6232;48.094;11.288;2023-03-16T17:22:15;3.30;;;2.60;;
12332;SDS011;6232;48.094;11.288;2023-03-16T17:25:02;3.20;;;2.70;;
12332;SDS011;6232;48.094;11.288;2023-03-16T17:27:49;4.80;;;3.20;;
12332;SDS011;6232;48.094;11.288;2023-03-16T17:30:35;3.07;;;2.70;;
12332;SDS011;6232;48.094;11.288;2023-03-16T17:33:21;5.93;;;3.33;;
12332;SDS011;6232;48.094;11.288;2023-03-16T17:36:12;5.47;;;3.60;;
12332;SDS011;6232;48.094;11.288;2023-03-16T17:38:59;5.27;;;4.43;;
12332;SDS011;6232;48.094;11.288;2023-03-16T17:41:50;5.90;;;3.77;;
12332;SDS011;6232;48.094;11.288;2023-03-16T17:44:38;4.00;;;3.60;;
12332;SDS011;6232;48.094;11.288;2023-03-16T17:47:25;18.90;;;10.87;;
12332;SDS011;6232;48.094;11.288;2023-03-16T17:50:28;5.43;;;4.23;;
12332;SDS011;6232;48.094;11.288;2023-03-16T17:53:16;12.90;;;6.40;;
12332;SDS011;6232;48.094;11.288;2023-03-16T17:56:02;26.43;;;10.70;;
12332;SDS011;6232;48.094;11.288;2023-03-16T17:58:48;12.37;;;6.93;;
12332;SDS011;6232;48.094;11.288;2023-03-16T18:01:35;14.30;;;9.17;;